Time;durP1;ratioP1;P1;durP2;ratioP2;P2;SDS_P1;SDS_P2;PMS_P1;PMS_P2;Temp;Humidity;BMP_temperature;BMP_pressure;BME280_temperature;BME280_humidity;BME280_pressure;Samples;Min_cycle;Max_cycle;Signal;HPM_P1;HPM_P2
2021/05/13 00:00:50;;;;;;;30.43;16.77;;;10.50;88.70;;;;;;5053986;28;20291;-85
2021/05/13 00:03:16;;;;;;;30.07;17.00;;;10.50;88.50;;;;;;5054124;28;20172;-85
2021/05/13 00:05:42;;;;;;;33.43;18.37;;;10.50;88.40;;;;;;5036273;28;20175;-85
2021/05/13 00:08:07;;;;;;;28.87;17.87;;;10.50;88.90;;;;;;5053947;28;20254;-85
2021/05/13 00:10:33;;;;;;;30.40;19.23;;;10.50;88.80;;;;;;5036176;28;20612;-84
2021/05/13 00:13:01;;;;;;;35.50;19.43;;;10.40;88.80;;;;;;5053893;28;20195;-85
2021/05/13 00:15:30;;;;;;;31.37;19.50;;;10.40;88.80;;;;;;5053756;28;20164;-85
2021/05/13 00:17:57;;;;;;;31.07;18.33;;;10.30;89.00;;;;;;5035977;28;20527;-85
2021/05/13 00:20:31;;;;;;;29.93;19.33;;;10.40;88.90;;;;;;5035742;28;20286;-85
2021/05/13 00:22:57;;;;;;;34.27;20.57;;;10.30;89.00;;;;;;5053901;28;20583;-86
2021/05/13 00:25:23;;;;;;;36.57;19.33;;;10.40;89.20;;;;;;5035706;28;20180;-85
2021/05/13 00:27:50;;;;;;;31.27;18.70;;;10.30;89.30;;;;;;5053453;28;20194;-85
2021/05/13 00:30:16;;;;;;;35.10;19.70;;;10.30;89.40;;;;;;5053681;28;20648;-85
2021/05/13 00:32:42;;;;;;;28.80;18.50;;;10.40;89.30;;;;;;5053460;28;20585;-85
2021/05/13 00:35:13;;;;;;;32.93;18.90;;;10.40;89.40;;;;;;5053439;28;20172;-85
2021/05/13 00:37:40;;;;;;;36.00;19.40;;;10.40;89.20;;;;;;5035909;28;20180;-85
2021/05/13 00:40:08;;;;;;;33.87;19.83;;;10.30;89.30;;;;;;5035552;28;20207;-85
2021/05/13 00:42:33;;;;;;;38.83;19.43;;;10.30;89.20;;;;;;5053232;28;20200;-85
2021/05/13 00:44:59;;;;;;;36.47;19.17;;;10.40;89.20;;;;;;5053268;28;20251;-85
2021/05/13 00:47:27;;;;;;;31.47;18.60;;;10.30;89.40;;;;;;5053342;28;20577;-85
2021/05/13 00:49:53;;;;;;;28.90;18.63;;;10.30;89.40;;;;;;5053181;28;20225;-84
2021/05/13 00:52:20;;;;;;;27.67;17.67;;;10.30;89.40;;;;;;5053181;28;20191;-85
2021/05/13 00:54:46;;;;;;;35.33;17.70;;;10.40;89.40;;;;;;5053430;28;20172;-85
2021/05/13 00:57:13;;;;;;;31.17;17.50;;;10.30;89.50;;;;;;5053152;28;20202;-85
2021/05/13 00:59:42;;;;;;;34.60;18.53;;;10.30;89.50;;;;;;5053120;28;20214;-85
2021/05/13 01:02:08;;;;;;;37.17;17.67;;;10.30;89.40;;;;;;5053150;28;20188;-85
2021/05/13 01:04:34;;;;;;;31.67;17.23;;;10.30;89.40;;;;;;5052951;28;20215;-85
2021/05/13 01:06:59;;;;;;;27.73;17.30;;;10.30;89.50;;;;;;5035340;28;20640;-85
2021/05/13 01:09:28;;;;;;;30.03;17.43;;;10.30;89.40;;;;;;5053067;28;20176;-85
2021/05/13 01:12:00;;;;;;;34.47;17.87;;;10.30;89.50;;;;;;5035166;28;20188;-85
2021/05/13 01:19:39;;;;;;;33.37;17.70;;;10.20;89.90;;;;;;5053253;28;20154;-85
2021/05/13 01:22:04;;;;;;;36.70;17.27;;;10.20;89.80;;;;;;5035105;28;20192;-85
2021/05/13 01:24:30;;;;;;;28.37;17.20;;;10.20;89.80;;;;;;5035144;28;20309;-85
2021/05/13 01:26:56;;;;;;;34.20;18.13;;;10.20;89.80;;;;;;5052808;28;20294;-85
2021/05/13 01:29:27;;;;;;;35.00;16.73;;;10.20;89.80;;;;;;5052872;28;20172;-85
2021/05/13 01:31:53;;;;;;;30.63;16.43;;;10.20;89.90;;;;;;5052835;28;20195;-85
2021/05/13 01:34:21;;;;;;;28.13;16.27;;;10.20;89.90;;;;;;5034919;28;20221;-85
2021/05/13 01:36:47;;;;;;;29.03;16.00;;;10.30;89.90;;;;;;5052841;28;20172;-85
2021/05/13 01:39:13;;;;;;;33.60;17.30;;;10.30;89.90;;;;;;5034882;28;20184;-85
2021/05/13 01:41:40;;;;;;;32.97;18.20;;;10.30;89.80;;;;;;5052637;28;20258;-85
2021/05/13 01:44:06;;;;;;;34.93;20.00;;;10.30;89.80;;;;;;5034879;28;20176;-85
2021/05/13 01:46:33;;;;;;;40.17;19.37;;;10.30;89.80;;;;;;5052695;28;20542;-85
2021/05/13 01:48:58;;;;;;;39.97;18.73;;;10.20;89.80;;;;;;5034950;28;20172;-85
2021/05/13 01:51:24;;;;;;;42.27;20.77;;;10.20;90.00;;;;;;5052684;28;20198;-85
2021/05/13 01:53:50;;;;;;;33.10;19.77;;;10.20;89.90;;;;;;5052716;28;20207;-85
2021/05/13 01:56:16;;;;;;;33.70;19.13;;;10.20;89.90;;;;;;5052568;28;20194;-85
2021/05/13 01:58:42;;;;;;;41.27;20.30;;;10.30;89.80;;;;;;5034798;28;20669;-85
2021/05/13 02:01:12;;;;;;;41.03;21.93;;;10.20;90.00;;;;;;5034606;28;20258;-85
2021/05/13 02:03:43;;;;;;;44.47;23.17;;;10.20;90.10;;;;;;5034815;28;20164;-85
2021/05/13 02:06:09;;;;;;;45.17;23.87;;;10.20;90.00;;;;;;5145586;22;20227;-84
2021/05/13 02:08:35;;;;;;;48.47;24.23;;;10.20;90.00;;;;;;5052620;28;20172;-84
2021/05/13 02:11:01;;;;;;;46.43;24.23;;;10.20;90.00;;;;;;5034762;28;20269;-84
2021/05/13 02:13:27;;;;;;;46.17;24.03;;;10.30;89.80;;;;;;5052483;28;20266;-84
2021/05/13 02:15:53;;;;;;;47.40;24.57;;;10.30;89.70;;;;;;5053333;28;20271;-84
2021/05/13 02:18:21;;;;;;;43.17;23.63;;;10.30;89.70;;;;;;5056318;28;20598;-84
2021/05/13 02:20:48;;;;;;;47.20;24.57;;;10.30;89.70;;;;;;5055828;28;20199;-83
2021/05/13 02:23:15;;;;;;;45.50;25.20;;;10.30;89.60;;;;;;5056201;28;20192;-83
2021/05/13 02:25:43;;;;;;;54.67;25.77;;;10.30;89.60;;;;;;5055760;28;20192;-83
2021/05/13 02:28:09;;;;;;;48.17;26.13;;;10.30;89.50;;;;;;5055987;28;20251;-83
2021/05/13 02:30:35;;;;;;;52.00;25.10;;;10.30;89.40;;;;;;5055671;28;20302;-83
2021/05/13 02:33:00;;;;;;;46.60;24.90;;;10.30;89.50;;;;;;5037901;28;20182;-83
2021/05/13 02:35:26;;;;;;;51.77;29.13;;;10.30;89.50;;;;;;5055675;28;20168;-83
2021/05/13 02:37:52;;;;;;;65.47;30.87;;;10.30;89.30;;;;;;5037794;28;20183;-83
2021/05/13 02:40:18;;;;;;;63.37;30.53;;;10.50;89.30;;;;;;5037652;28;20204;-83
2021/05/13 02:42:45;;;;;;;65.50;32.70;;;10.50;89.20;;;;;;5055732;28;20531;-83
2021/05/13 02:45:13;;;;;;;58.93;30.50;;;10.50;89.30;;;;;;5055458;28;20168;-84
2021/05/13 02:47:39;;;;;;;70.87;33.17;;;10.40;89.20;;;;;;5055529;28;20192;-83
2021/05/13 02:50:08;;;;;;;62.27;30.63;;;10.40;89.20;;;;;;5037712;28;20176;-83
2021/05/13 02:52:33;;;;;;;58.47;29.90;;;10.40;89.40;;;;;;5037450;28;20179;-84
2021/05/13 02:54:59;;;;;;;56.63;29.00;;;10.40;89.30;;;;;;5055370;28;20247;-84
2021/05/13 02:57:25;;;;;;;49.43;28.27;;;10.40;89.40;;;;;;5037466;28;20192;-83
2021/05/13 03:00:01;;;;;;;43.57;26.20;;;10.40;89.40;;;;;;5055139;28;20199;-83
2021/05/13 03:02:26;;;;;;;48.13;26.20;;;10.40;89.40;;;;;;5055508;28;20153;-84
2021/05/13 03:04:52;;;;;;;41.67;25.57;;;10.40;89.40;;;;;;5055363;28;20183;-84
2021/05/13 03:07:18;;;;;;;46.37;26.90;;;10.40;89.40;;;;;;5037041;28;20748;-83
2021/05/13 03:09:48;;;;;;;52.20;27.93;;;10.40;89.50;;;;;;5037142;28;20175;-83
2021/05/13 03:12:14;;;;;;;53.00;29.43;;;10.40;89.40;;;;;;5055135;28;20148;-83
2021/05/13 03:14:39;;;;;;;53.27;30.17;;;10.40;89.40;;;;;;5038392;28;20195;-86
2021/05/13 03:17:05;;;;;;;49.67;30.63;;;10.40;89.50;;;;;;5042147;28;20196;-86
2021/05/13 03:19:41;;;;;;;58.43;32.17;;;10.40;89.50;;;;;;5038886;28;20176;-84
2021/05/13 03:22:10;;;;;;;51.63;30.47;;;10.40;89.40;;;;;;5054950;28;20186;-83
2021/05/13 03:25:10;;;;;;;44.67;26.57;;;10.40;89.40;;;;;;5036842;28;20168;-84
2021/05/13 03:27:42;;;;;;;36.90;24.03;;;10.40;89.30;;;;;;5052174;28;20204;-83
2021/05/13 03:30:09;;;;;;;31.43;20.63;;;10.40;89.20;;;;;;5054678;28;20164;-83
2021/05/13 03:32:35;;;;;;;29.37;19.70;;;10.40;89.30;;;;;;5036899;28;20185;-84
2021/05/13 03:35:00;;;;;;;27.67;19.43;;;10.40;89.20;;;;;;5054862;28;20172;-84
2021/05/13 03:37:28;;;;;;;27.13;18.93;;;10.50;89.30;;;;;;5054536;28;20195;-83
2021/05/13 03:39:57;;;;;;;26.90;18.23;;;10.30;89.30;;;;;;5054395;28;20188;-83
2021/05/13 03:42:23;;;;;;;28.13;18.13;;;10.30;89.40;;;;;;5054350;28;20168;-83
2021/05/13 03:44:49;;;;;;;25.50;18.03;;;10.40;89.40;;;;;;5054683;28;20170;-84
2021/05/13 03:47:15;;;;;;;24.70;17.07;;;10.40;89.50;;;;;;5054175;28;20188;-84
2021/05/13 03:49:41;;;;;;;23.03;16.90;;;10.40;89.40;;;;;;5054275;28;20172;-84
2021/05/13 03:52:07;;;;;;;22.33;17.70;;;10.30;89.50;;;;;;5054697;28;20175;-84
2021/05/13 03:54:32;;;;;;;17.37;14.83;;;10.40;89.50;;;;;;5054618;28;20168;-84
2021/05/13 03:56:59;;;;;;;20.50;15.30;;;10.30;89.60;;;;;;5054216;28;20192;-84
2021/05/13 03:59:24;;;;;;;22.80;15.90;;;10.30;89.80;;;;;;5036196;28;20172;-84
2021/05/13 04:04:31;;;;;;;21.70;14.63;;;10.30;89.60;;;;;;5053972;28;20511;-83
2021/05/13 04:06:57;;;;;;;19.63;13.53;;;10.30;89.60;;;;;;5053821;28;20213;-83
2021/05/13 04:09:23;;;;;;;16.43;13.43;;;10.30;89.50;;;;;;5053777;28;20187;-83
2021/05/13 04:11:48;;;;;;;19.80;13.83;;;10.30;89.50;;;;;;5054028;28;20257;-83
2021/05/13 04:14:14;;;;;;;20.00;14.67;;;10.30;89.50;;;;;;5036044;28;20530;-84
2021/05/13 04:16:42;;;;;;;17.60;14.03;;;10.30;89.60;;;;;;5035876;28;20652;-83
2021/05/13 04:19:08;;;;;;;17.50;13.90;;;10.30;89.60;;;;;;5035739;28;20204;-83
2021/05/13 04:21:34;;;;;;;20.40;14.83;;;10.40;89.60;;;;;;5035667;28;20238;-83
2021/05/13 04:24:00;;;;;;;25.90;17.83;;;10.40;89.60;;;;;;5053880;28;20674;-84
2021/05/13 04:26:26;;;;;;;27.30;18.30;;;10.50;89.50;;;;;;5053580;28;20188;-83
2021/05/13 04:28:51;;;;;;;36.07;24.57;;;10.50;89.30;;;;;;5035587;28;20175;-83
2021/05/13 04:31:17;;;;;;;36.57;23.80;;;10.50;89.30;;;;;;5053490;28;20222;-83
2021/05/13 04:33:43;;;;;;;39.73;26.43;;;10.50;89.40;;;;;;5035473;28;20252;-84
2021/05/13 04:36:09;;;;;;;44.50;28.33;;;10.50;89.40;;;;;;5053350;28;20192;-83
2021/05/13 04:38:35;;;;;;;46.70;29.70;;;10.50;89.50;;;;;;5052930;28;20294;-83
2021/05/13 04:41:01;;;;;;;45.13;27.67;;;10.50;89.40;;;;;;5053238;28;20199;-84
2021/05/13 04:43:37;;;;;;;41.87;26.50;;;10.50;89.30;;;;;;5053558;28;20616;-84
2021/05/13 04:46:03;;;;;;;47.93;28.83;;;10.50;89.30;;;;;;5053217;28;20183;-83
2021/05/13 04:48:40;;;;;;;44.40;28.50;;;10.60;89.30;;;;;;5053159;28;20250;-83
2021/05/13 04:51:06;;;;;;;48.27;30.17;;;10.60;89.20;;;;;;5053316;28;20615;-84
2021/05/13 04:53:31;;;;;;;47.27;28.80;;;10.50;89.30;;;;;;5053117;28;20255;-84
2021/05/13 04:55:57;;;;;;;47.83;28.27;;;10.60;89.20;;;;;;5053470;28;20203;-84
2021/05/13 04:58:23;;;;;;;46.67;28.33;;;10.60;89.10;;;;;;5035444;28;20179;-83
2021/05/13 05:00:49;;;;;;;48.90;29.30;;;10.60;89.20;;;;;;5035035;28;20226;-83
2021/05/13 05:03:15;;;;;;;45.20;28.47;;;10.60;89.30;;;;;;5053354;28;20675;-84
2021/05/13 05:05:41;;;;;;;41.03;26.67;;;10.70;89.30;;;;;;5034819;28;20230;-84
2021/05/13 05:08:06;;;;;;;38.33;23.63;;;10.70;89.30;;;;;;5052983;28;20214;-84
2021/05/13 05:10:32;;;;;;;32.47;20.73;;;10.80;89.20;;;;;;5053010;28;20226;-84
2021/05/13 05:12:57;;;;;;;29.27;19.60;;;10.80;89.00;;;;;;5052953;28;20172;-84
2021/05/13 05:15:23;;;;;;;27.43;18.30;;;10.80;88.80;;;;;;5052881;28;20574;-84
2021/05/13 05:17:49;;;;;;;22.13;16.27;;;10.80;88.90;;;;;;5035205;28;20655;-84
2021/05/13 05:20:15;;;;;;;22.33;15.00;;;10.70;89.10;;;;;;5052783;28;20202;-84
2021/05/13 05:22:41;;;;;;;20.67;15.13;;;10.70;89.20;;;;;;5052990;28;20615;-83
2021/05/13 05:25:07;;;;;;;22.70;16.07;;;10.70;89.20;;;;;;5035068;28;20202;-84
2021/05/13 05:27:34;;;;;;;20.13;14.83;;;10.80;89.00;;;;;;5052762;28;20183;-83
2021/05/13 05:29:59;;;;;;;21.30;14.87;;;10.80;89.00;;;;;;5053323;28;20707;-84
2021/05/13 05:32:25;;;;;;;26.30;17.67;;;10.80;89.00;;;;;;5052854;28;20260;-84
2021/05/13 05:34:51;;;;;;;20.23;14.10;;;10.70;89.00;;;;;;5052925;28;20254;-83
2021/05/13 05:37:17;;;;;;;21.83;14.17;;;10.70;88.90;;;;;;5034858;28;20210;-83
2021/05/13 05:39:42;;;;;;;30.83;18.17;;;10.70;88.90;;;;;;5052771;28;20172;-83
2021/05/13 05:42:08;;;;;;;32.03;17.27;;;10.70;88.90;;;;;;5052611;28;20165;-84
2021/05/13 05:44:33;;;;;;;21.13;13.57;;;10.80;88.80;;;;;;5034791;28;20172;-83
2021/05/13 05:46:59;;;;;;;23.50;13.63;;;10.80;88.60;;;;;;5052555;28;20729;-83
2021/05/13 05:49:25;;;;;;;23.60;13.63;;;10.80;88.60;;;;;;5052785;28;20164;-84
2021/05/13 05:51:50;;;;;;;29.67;15.40;;;10.80;88.60;;;;;;5056479;28;20168;-84
2021/05/13 05:54:16;;;;;;;30.13;15.97;;;10.90;88.60;;;;;;5056573;28;20183;-84
2021/05/13 05:56:42;;;;;;;30.47;17.87;;;10.80;88.50;;;;;;5038472;28;20192;-83
2021/05/13 05:59:07;;;;;;;37.10;20.43;;;10.80;88.40;;;;;;5038431;28;20187;-84
2021/05/13 06:01:35;;;;;;;43.20;23.40;;;10.90;88.40;;;;;;5056294;28;20198;-83
2021/05/13 06:04:01;;;;;;;44.97;25.73;;;10.90;88.50;;;;;;5056145;28;20169;-84
2021/05/13 06:06:27;;;;;;;53.57;28.57;;;10.90;88.60;;;;;;5056012;28;20581;-84
2021/05/13 06:08:52;;;;;;;46.20;25.77;;;11.00;88.40;;;;;;5056211;28;20168;-84
2021/05/13 06:11:18;;;;;;;39.53;23.03;;;11.00;88.40;;;;;;5056026;28;20168;-84
2021/05/13 06:13:44;;;;;;;33.17;19.23;;;11.00;88.30;;;;;;5056051;28;20207;-84
2021/05/13 06:16:11;;;;;;;26.30;18.03;;;11.10;88.00;;;;;;5038113;28;20291;-83
2021/05/13 06:18:58;;;;;;;30.07;18.37;;;11.00;88.00;;;;;;5038164;28;20183;-84
2021/05/13 06:21:25;;;;;;;32.33;18.77;;;11.00;88.10;;;;;;5055991;28;20192;-83
2021/05/13 06:23:56;;;;;;;34.23;19.83;;;11.00;88.40;;;;;;5055720;28;20169;-84
2021/05/13 06:26:24;;;;;;;30.87;19.20;;;11.00;88.40;;;;;;5055780;28;20184;-84
2021/05/13 06:28:49;;;;;;;30.23;18.63;;;11.00;88.30;;;;;;5055681;28;20671;-84
2021/05/13 06:31:15;;;;;;;30.83;18.70;;;10.90;88.50;;;;;;5055777;28;20176;-84
2021/05/13 06:33:41;;;;;;;34.93;19.57;;;10.90;88.40;;;;;;5055806;28;20175;-83
2021/05/13 06:36:06;;;;;;;37.43;19.67;;;11.00;88.60;;;;;;5037904;28;20203;-83
2021/05/13 06:38:32;;;;;;;28.53;18.43;;;11.00;88.60;;;;;;5055678;28;20179;-83
2021/05/13 06:40:58;;;;;;;28.17;17.73;;;11.10;88.50;;;;;;5055700;28;20218;-84
2021/05/13 06:43:24;;;;;;;33.90;18.57;;;11.10;88.30;;;;;;5056697;28;20192;-84
2021/05/13 06:45:50;;;;;;;27.90;17.07;;;11.10;88.30;;;;;;5056143;28;20573;-84
2021/05/13 06:48:15;;;;;;;26.73;17.20;;;11.20;88.20;;;;;;5055895;28;20177;-84
2021/05/13 06:50:41;;;;;;;32.20;22.93;;;11.20;88.20;;;;;;5056110;28;20180;-84
2021/05/13 06:53:07;;;;;;;33.50;22.70;;;11.20;87.90;;;;;;5056487;28;20186;-83
2021/05/13 06:55:33;;;;;;;38.83;22.90;;;11.20;87.90;;;;;;5056182;28;20225;-84
2021/05/13 06:57:59;;;;;;;34.07;20.37;;;11.30;87.90;;;;;;5056331;28;20628;-83
2021/05/13 07:00:25;;;;;;;36.17;21.33;;;11.20;88.00;;;;;;5055826;28;20202;-84
2021/05/13 07:02:51;;;;;;;28.97;18.37;;;11.20;88.10;;;;;;5037139;28;20580;-84
2021/05/13 07:05:17;;;;;;;33.50;18.73;;;11.20;87.80;;;;;;5055684;28;20249;-84
2021/05/13 07:07:43;;;;;;;23.17;15.77;;;11.30;87.80;;;;;;5055277;28;20659;-84
2021/05/13 07:10:10;;;;;;;32.00;17.30;;;11.30;87.70;;;;;;5055402;28;20175;-84
2021/05/13 07:12:36;;;;;;;30.53;17.43;;;11.30;87.70;;;;;;5037524;28;20187;-83
2021/05/13 07:15:02;;;;;;;25.63;17.83;;;11.30;87.50;;;;;;5055055;28;20168;-84
2021/05/13 07:17:29;;;;;;;29.33;19.80;;;11.30;87.50;;;;;;5057125;28;20531;-84
2021/05/13 07:19:55;;;;;;;28.60;18.77;;;11.30;87.30;;;;;;5036924;28;20180;-84
2021/05/13 07:22:21;;;;;;;28.90;19.37;;;11.40;87.30;;;;;;5054829;28;20214;-84
2021/05/13 07:24:50;;;;;;;27.00;18.00;;;11.40;87.20;;;;;;5036810;28;20263;-84
2021/05/13 07:27:16;;;;;;;22.97;18.23;;;11.50;87.40;;;;;;5054862;28;20549;-84
2021/05/13 07:29:42;;;;;;;26.40;18.37;;;11.60;87.00;;;;;;5054827;28;20247;-83
2021/05/13 07:32:08;;;;;;;26.20;17.70;;;11.50;86.90;;;;;;5054721;28;20171;-84
2021/05/13 07:34:34;;;;;;;27.20;18.30;;;11.70;87.10;;;;;;5036732;28;20172;-84
2021/05/13 07:37:02;;;;;;;24.73;16.47;;;11.70;87.00;;;;;;5054474;28;20188;-84
2021/05/13 07:39:28;;;;;;;32.63;22.07;;;11.80;86.80;;;;;;5054405;28;20179;-84
2021/05/13 07:41:53;;;;;;;37.73;23.83;;;11.80;87.10;;;;;;5054347;28;20192;-84
2021/05/13 07:44:19;;;;;;;35.63;22.83;;;11.70;87.70;;;;;;5054750;28;20178;-84
2021/05/13 07:46:45;;;;;;;38.60;24.37;;;11.70;87.70;;;;;;5054324;28;20188;-84
2021/05/13 07:49:12;;;;;;;35.70;21.97;;;11.70;87.80;;;;;;5054164;28;20597;-84
2021/05/13 07:51:41;;;;;;;35.33;23.57;;;11.70;87.80;;;;;;5036329;28;20180;-84
2021/05/13 07:54:06;;;;;;;33.80;23.37;;;11.60;88.10;;;;;;5036443;28;20592;-84
2021/05/13 07:56:32;;;;;;;36.93;23.53;;;11.60;88.30;;;;;;5036115;28;20223;-83
2021/05/13 07:58:58;;;;;;;35.40;22.67;;;11.60;88.40;;;;;;5036169;28;20203;-83
2021/05/13 08:01:23;;;;;;;39.77;25.07;;;11.70;88.40;;;;;;5036436;28;20573;-84
2021/05/13 08:03:49;;;;;;;42.63;23.87;;;11.60;88.40;;;;;;5036591;28;20670;-83
2021/05/13 08:06:14;;;;;;;35.50;23.67;;;11.70;88.50;;;;;;5036116;28;20208;-83
2021/05/13 08:08:40;;;;;;;35.47;24.57;;;11.70;88.20;;;;;;5060709;22;20231;-85
2021/05/13 08:11:06;;;;;;;36.63;24.03;;;11.60;88.50;;;;;;5036070;28;20176;-84
2021/05/13 08:13:31;;;;;;;30.70;21.37;;;11.70;88.70;;;;;;5035014;28;20176;-84
2021/05/13 08:15:58;;;;;;;28.93;19.83;;;11.70;88.30;;;;;;5053803;28;20172;-84
2021/05/13 08:18:23;;;;;;;28.53;20.03;;;11.70;88.10;;;;;;5035769;28;20576;-84
2021/05/13 08:20:49;;;;;;;26.80;20.13;;;11.70;88.40;;;;;;5053627;28;20200;-84
2021/05/13 08:23:15;;;;;;;29.67;20.43;;;11.80;88.20;;;;;;5035926;28;20176;-84
2021/05/13 08:25:41;;;;;;;28.63;19.07;;;11.90;88.40;;;;;;5035791;28;20177;-84
2021/05/13 08:28:07;;;;;;;28.13;19.23;;;11.90;88.10;;;;;;5035597;28;20196;-85
2021/05/13 08:30:33;;;;;;;27.83;20.03;;;11.90;88.00;;;;;;5053527;28;20195;-85
2021/05/13 08:32:58;;;;;;;28.40;18.73;;;11.90;87.90;;;;;;5053435;28;20180;-84
2021/05/13 08:35:24;;;;;;;22.87;16.13;;;11.90;87.80;;;;;;5035661;28;20182;-85
2021/05/13 08:37:49;;;;;;;26.30;16.90;;;12.00;87.60;;;;;;5035508;28;20192;-85
2021/05/13 08:40:15;;;;;;;24.53;16.70;;;12.00;87.10;;;;;;5035472;28;20200;-85
2021/05/13 08:42:41;;;;;;;29.17;18.73;;;11.90;87.00;;;;;;5053342;28;20164;-85
2021/05/13 08:45:08;;;;;;;22.47;16.17;;;11.90;86.90;;;;;;5035351;28;20202;-85
2021/05/13 08:47:38;;;;;;;26.47;19.03;;;12.00;87.10;;;;;;5053511;28;20176;-85
2021/05/13 08:50:05;;;;;;;25.23;18.20;;;11.90;87.00;;;;;;5053279;28;20161;-85
2021/05/13 08:52:32;;;;;;;25.43;17.77;;;12.00;86.90;;;;;;5052887;28;20691;-85
2021/05/13 08:55:02;;;;;;;21.40;18.00;;;12.00;86.60;;;;;;5053178;28;20200;-84
2021/05/13 08:57:28;;;;;;;30.33;21.10;;;12.10;86.50;;;;;;5053011;28;20643;-84
2021/05/13 08:59:56;;;;;;;31.10;23.37;;;12.00;86.30;;;;;;5035151;28;20191;-85
2021/05/13 09:02:25;;;;;;;36.47;24.67;;;12.00;86.70;;;;;;5053648;28;20567;-85
2021/05/13 09:04:56;;;;;;;33.37;25.00;;;12.00;86.80;;;;;;5053067;28;20236;-85
2021/05/13 09:07:28;;;;;;;36.07;27.47;;;12.00;87.00;;;;;;5052953;28;20171;-85
2021/05/13 09:10:05;;;;;;;36.30;28.37;;;11.90;87.20;;;;;;5035203;28;20190;-85
2021/05/13 09:12:44;;;;;;;41.00;29.70;;;11.90;87.30;;;;;;5052984;28;20179;-85
2021/05/13 09:15:14;;;;;;;41.37;29.97;;;11.90;87.60;;;;;;5053041;28;20256;-85
2021/05/13 09:17:43;;;;;;;47.07;29.73;;;11.90;87.60;;;;;;5035053;28;20604;-85
2021/05/13 09:20:31;;;;;;;37.60;27.67;;;12.00;87.70;;;;;;5052813;28;20637;-85
2021/05/13 09:23:14;;;;;;;37.90;27.17;;;11.90;88.20;;;;;;5035064;28;20225;-85
2021/05/13 09:25:41;;;;;;;34.07;25.13;;;11.90;88.50;;;;;;5055448;28;20167;-85
2021/05/13 09:28:07;;;;;;;36.37;26.87;;;12.00;88.40;;;;;;5039007;28;20671;-85
2021/05/13 09:30:33;;;;;;;38.57;26.33;;;12.00;88.70;;;;;;5056865;28;20199;-85
2021/05/13 09:33:05;;;;;;;34.03;24.87;;;12.10;88.70;;;;;;5056918;28;20178;-85
2021/05/13 09:35:32;;;;;;;32.90;25.10;;;12.10;88.30;;;;;;5039005;28;20172;-85
2021/05/13 09:37:59;;;;;;;30.37;22.60;;;12.00;88.50;;;;;;5038835;28;20566;-85
2021/05/13 09:40:50;;;;;;;33.87;24.23;;;12.10;88.10;;;;;;5056677;28;20224;-85
2021/05/13 09:43:24;;;;;;;40.97;26.33;;;12.10;88.50;;;;;;5038773;28;20164;-85
2021/05/13 09:46:01;;;;;;;33.43;24.27;;;12.10;88.70;;;;;;5038795;28;20542;-86
2021/05/13 09:48:43;;;;;;;35.47;24.23;;;12.20;88.50;;;;;;5056575;28;20226;-86
2021/05/13 09:51:25;;;;;;;32.37;24.83;;;12.30;88.30;;;;;;5038645;28;20536;-85
2021/05/13 09:54:17;;;;;;;34.97;24.63;;;12.30;88.10;;;;;;5038738;28;20199;-85
2021/05/13 09:56:43;;;;;;;33.43;24.10;;;12.30;88.60;;;;;;5038562;28;20648;-86
2021/05/13 09:59:31;;;;;;;34.40;24.00;;;12.40;88.60;;;;;;5038478;28;20206;-86
2021/05/13 10:02:04;;;;;;;32.97;25.30;;;12.50;87.80;;;;;;5056261;28;20191;-85
2021/05/13 10:04:30;;;;;;;35.87;25.57;;;12.50;88.10;;;;;;5056237;28;20169;-86
2021/05/13 10:06:56;;;;;;;32.27;25.27;;;12.50;88.20;;;;;;5056603;28;20195;-85
2021/05/13 10:09:22;;;;;;;31.30;23.43;;;12.60;88.00;;;;;;5056025;28;20206;-86
2021/05/13 10:11:56;;;;;;;31.30;23.90;;;12.50;87.40;;;;;;5038378;28;20180;-86
2021/05/13 10:14:23;;;;;;;31.97;25.00;;;12.60;88.20;;;;;;5056466;28;20171;-86
2021/05/13 10:16:51;;;;;;;25.50;20.87;;;12.50;87.80;;;;;;5038273;28;20721;-86
2021/05/13 10:19:29;;;;;;;32.03;22.70;;;12.60;87.40;;;;;;5038082;28;20570;-86
2021/05/13 10:21:56;;;;;;;29.73;24.17;;;12.50;87.40;;;;;;5038970;28;20200;-86
2021/05/13 10:24:22;;;;;;;24.73;22.13;;;12.80;87.80;;;;;;5056024;28;20727;-86
2021/05/13 10:26:49;;;;;;;28.03;20.30;;;12.80;87.00;;;;;;5038073;28;20173;-86
2021/05/13 10:29:27;;;;;;;24.90;19.10;;;12.80;86.30;;;;;;5055774;28;20261;-86
2021/05/13 10:32:23;;;;;;;25.37;19.17;;;12.80;86.20;;;;;;5038063;28;20160;-86
2021/05/13 10:34:54;;;;;;;22.70;17.37;;;12.80;86.50;;;;;;5037934;28;20255;-86
2021/05/13 10:37:38;;;;;;;23.27;19.60;;;12.90;86.80;;;;;;5054543;28;20230;-86
2021/05/13 10:40:07;;;;;;;20.30;18.07;;;13.00;86.10;;;;;;5055933;28;20647;-86
2021/05/13 10:42:34;;;;;;;21.23;19.03;;;13.10;86.20;;;;;;5037867;28;20176;-86
2021/05/13 10:45:00;;;;;;;24.00;18.83;;;13.10;85.90;;;;;;5055592;28;20195;-86
2021/05/13 10:47:28;;;;;;;21.43;17.17;;;13.00;85.40;;;;;;5055564;28;20168;-87
2021/05/13 10:49:54;;;;;;;21.40;16.70;;;12.80;85.80;;;;;;5037673;28;20176;-87
2021/05/13 10:52:39;;;;;;;15.60;13.73;;;13.00;86.00;;;;;;5037898;28;20203;-86
2021/05/13 10:55:07;;;;;;;16.07;13.33;;;12.80;85.70;;;;;;5037595;28;20161;-86
2021/05/13 10:57:50;;;;;;;15.80;13.57;;;12.90;86.20;;;;;;5055524;28;20667;-86
2021/05/13 11:00:16;;;;;;;17.60;13.47;;;13.00;86.20;;;;;;5037397;28;20191;-86
2021/05/13 11:02:44;;;;;;;14.97;13.00;;;13.10;86.60;;;;;;5037585;28;20180;-86
2021/05/13 11:05:33;;;;;;;15.37;12.20;;;13.20;86.20;;;;;;5037398;28;20597;-86
2021/05/13 11:08:08;;;;;;;13.40;11.30;;;13.20;85.90;;;;;;5036990;28;20212;-86
2021/05/13 11:10:49;;;;;;;14.83;13.13;;;13.00;85.50;;;;;;5037284;28;20222;-86
2021/05/13 11:13:16;;;;;;;17.27;12.57;;;13.00;86.20;;;;;;5037971;28;20530;-86
2021/05/13 11:15:44;;;;;;;13.37;11.17;;;13.10;86.50;;;;;;5055010;28;20180;-86
2021/05/13 11:18:13;;;;;;;16.17;12.53;;;13.20;85.40;;;;;;5036958;28;20204;-86
2021/05/13 11:20:44;;;;;;;14.57;12.03;;;13.10;86.30;;;;;;5036886;28;20208;-86
2021/05/13 11:23:19;;;;;;;16.13;12.50;;;13.20;85.80;;;;;;5036987;28;20168;-86
2021/05/13 11:26:02;;;;;;;19.23;13.33;;;13.30;85.50;;;;;;5036973;28;20588;-85
2021/05/13 11:28:43;;;;;;;14.27;12.07;;;13.20;85.60;;;;;;5054811;28;20731;-86
2021/05/13 11:31:22;;;;;;;15.07;11.17;;;13.20;86.10;;;;;;5036804;28;20172;-86
2021/05/13 11:33:47;;;;;;;13.40;10.70;;;13.00;85.80;;;;;;5036793;28;20643;-86
2021/05/13 11:36:17;;;;;;;12.50;10.13;;;13.10;86.00;;;;;;5036858;28;20184;-86
2021/05/13 11:38:49;;;;;;;13.20;10.13;;;13.00;85.80;;;;;;5054453;28;20234;-86
2021/05/13 11:41:17;;;;;;;10.70;9.70;;;12.80;85.70;;;;;;5036501;28;20671;-86
2021/05/13 11:43:43;;;;;;;14.20;10.87;;;12.90;86.60;;;;;;5036621;28;20207;-84
2021/05/13 11:46:10;;;;;;;13.73;10.87;;;13.00;86.60;;;;;;5054325;28;20210;-85
2021/05/13 11:48:40;;;;;;;13.33;10.40;;;13.10;86.20;;;;;;5036353;28;20188;-85
2021/05/13 11:51:12;;;;;;;12.47;10.60;;;13.00;86.40;;;;;;5054841;28;20189;-91
2021/05/13 11:53:45;;;;;;;15.33;10.20;;;13.10;86.00;;;;;;5037142;28;20238;-90
2021/05/13 11:56:13;;;;;;;9.83;8.83;;;13.20;85.80;;;;;;5037108;28;20560;-90
2021/05/13 11:58:53;;;;;;;13.17;9.47;;;13.10;85.50;;;;;;5037095;28;20203;-90
2021/05/13 12:01:28;;;;;;;12.67;9.03;;;13.10;85.30;;;;;;5036891;28;20291;-90
2021/05/13 12:03:53;;;;;;;12.73;9.23;;;13.10;85.30;;;;;;5036972;28;20194;-90
2021/05/13 12:06:19;;;;;;;9.50;8.50;;;13.20;85.20;;;;;;5036531;28;20176;-90
2021/05/13 12:08:45;;;;;;;10.23;7.77;;;13.20;85.80;;;;;;5036955;28;20642;-90
2021/05/13 12:11:27;;;;;;;8.60;7.73;;;12.90;85.70;;;;;;5037028;28;20229;-91
2021/05/13 12:14:06;;;;;;;8.03;7.23;;;13.00;86.30;;;;;;5036546;28;20180;-90
2021/05/13 12:16:32;;;;;;;8.73;7.67;;;12.90;86.60;;;;;;5036893;28;20552;-91
2021/05/13 12:19:06;;;;;;;9.67;7.97;;;12.70;86.90;;;;;;5036702;28;20200;-91
2021/05/13 12:21:35;;;;;;;9.53;7.23;;;12.80;87.30;;;;;;5036098;28;20217;-91
2021/05/13 12:24:02;;;;;;;10.97;7.27;;;12.70;86.90;;;;;;5036166;28;20186;-91
2021/05/13 12:26:39;;;;;;;9.13;7.53;;;12.70;87.20;;;;;;5036634;28;20172;-92
2021/05/13 12:29:05;;;;;;;10.67;8.43;;;12.70;87.10;;;;;;5036267;28;20195;-91
2021/05/13 12:31:36;;;;;;;12.73;9.10;;;12.50;87.00;;;;;;5035962;28;20191;-90
2021/05/13 12:34:06;;;;;;;15.37;9.50;;;12.40;87.80;;;;;;5037355;28;20631;-90
2021/05/13 12:36:35;;;;;;;11.17;9.80;;;12.60;88.20;;;;;;5036663;28;20187;-89
2021/05/13 12:39:01;;;;;;;13.87;9.33;;;12.60;88.20;;;;;;5035915;28;20208;-90
2021/05/13 12:41:28;;;;;;;14.13;9.20;;;12.70;87.70;;;;;;5036348;28;20231;-89